Terminal Aerodrome Forecast
Issued by NWS Charleston, WV

Current Version | Previous Version | Graphics & Text | Print | Product List | Glossary On
Versions: 1 2 3 4 5 6 7 8 9 10 11 12 13 14 15 16 17 18 19 20 21 22 23 24 25 26
342
FTUS41 KRLX 140910 AAA
TAFHTS
TAF AMD
KHTS 140910Z 1409/1506 30015G28KT P6SM OVC030
     FM141200 29010G18KT P6SM BKN025
     FM141400 31007KT P6SM BKN030
     FM141700 32004KT P6SM BKN040=

USA.gov is the U.S. government's official web portal to all federal, state and local government web resources and services.